GCLP/LPA METAR and TAF weather

Enter ICAO airport designator
Station Type Date Time Source
GCLP METAR 2022/01/29 13:30 UTC NOAA

GCLP 291330Z 02018KT 1300 R03///// R21///// HZ VV020 22/09 Q1018 NOSIG


Station Type Date Time Source
GCLP Decoded METAR 2022/01/29 13:30 UTC NOAA

Gran Canaria - Canary Islands, Spain (GCLP) 27-56N 015-23W 47M
Jan 29, 2022 - 08:30 AM EST / 2022.01.29 1330 UTC
Wind: from the NNE (020 degrees) at 21 MPH (18 KT):0
Visibility: less than 1 mile:0
Sky conditions: obscured
Weather: haze
Temperature: 71 F (22 C)
Dew Point: 48 F (9 C)
Relative Humidity: 43%
Pressure (altimeter): 30.06 in. Hg (1018 hPa)
ob: GCLP 291330Z 02018KT 1300 R03///// R21///// HZ VV020 22/09 Q1018 NOSIG
cycle: 13

Station Type Date Time Source
GCLP TAF 2022/01/29 09:32 UTC NOAA

TAF GCLP 290800Z 2909/3009 35015KT 7000 FEW030 TX22/2914Z TN15/3006Z
TEMPO 2909/3009 4500 HZ

Example: see airport list